Rantoul, Kansas
Current Conditions -  °F | °C
As of 9:53 PM on Thursday 20 Nov 2014 (Local Time) from KIXD Reporting Station
Clear Clear  
Wind Chill: 19°   Ceiling: Unl
Heat Index: 27°   Visibility: 10mi
Dew Point: 18°   Wind: 7mph
Humidity: 69%   Direction: 60°ENE
Pressure: 30.25"   Gusts: NA
Location:  38.55°N, 95.1°W
Report Text: KIXD 210353Z 06006KT 10SM CLR M03/M08 A3025 RMK AO2 SLP255 T10281078
Loading
Personal Weather Stations






























Interactive Weather Map New forecast layout! Learn more

10-Day Weather Forecast

Advertisements
Track Severe Weather on mobile